sensor_id;sensor_type;location;lat;lon;timestamp;pressure;altitude;pressure_sealevel;temperature;humidity
74895;BME280;63447;49.446;8.666;2022-10-04T00:04:35;101226.41;;;8.88;82.30
74895;BME280;63447;49.446;8.666;2022-10-04T00:07:15;101212.94;;;8.87;82.17
74895;BME280;63447;49.446;8.666;2022-10-04T00:14:52;101216.63;;;8.82;82.60
74895;BME280;63447;49.446;8.666;2022-10-04T00:17:24;101222.41;;;8.80;82.93
74895;BME280;63447;49.446;8.666;2022-10-04T00:19:52;101206.28;;;8.74;82.55
74895;BME280;63447;49.446;8.666;2022-10-04T00:22:25;101200.47;;;8.75;82.12
74895;BME280;63447;49.446;8.666;2022-10-04T00:27:39;101228.75;;;8.81;82.06
74895;BME280;63447;49.446;8.666;2022-10-04T00:30:24;101219.22;;;8.73;82.23
74895;BME280;63447;49.446;8.666;2022-10-04T00:33:00;101209.84;;;8.74;82.48
74895;BME280;63447;49.446;8.666;2022-10-04T00:38:15;101206.94;;;8.66;82.27
74895;BME280;63447;49.446;8.666;2022-10-04T00:40:47;101214.59;;;8.69;82.46
74895;BME280;63447;49.446;8.666;2022-10-04T00:43:20;101220.03;;;8.74;82.11
74895;BME280;63447;49.446;8.666;2022-10-04T00:48:30;101208.50;;;8.72;82.48
74895;BME280;63447;49.446;8.666;2022-10-04T00:53:51;101220.63;;;8.71;82.73
74895;BME280;63447;49.446;8.666;2022-10-04T00:56:30;101233.28;;;8.72;81.69
74895;BME280;63447;49.446;8.666;2022-10-04T01:01:25;101223.16;;;8.48;82.48
74895;BME280;63447;49.446;8.666;2022-10-04T01:03:52;101229.19;;;8.50;83.57
74895;BME280;63447;49.446;8.666;2022-10-04T01:06:22;101195.22;;;8.41;84.09
74895;BME280;63447;49.446;8.666;2022-10-04T01:08:52;101182.81;;;8.44;83.46
74895;BME280;63447;49.446;8.666;2022-10-04T01:11:25;101199.34;;;8.58;83.23
74895;BME280;63447;49.446;8.666;2022-10-04T01:14:01;101198.88;;;8.56;84.30
74895;BME280;63447;49.446;8.666;2022-10-04T01:16:31;101191.63;;;8.60;84.35
74895;BME280;63447;49.446;8.666;2022-10-04T01:21:55;101171.84;;;8.58;83.99
74895;BME280;63447;49.446;8.666;2022-10-04T01:24:32;101178.91;;;8.64;84.14
74895;BME280;63447;49.446;8.666;2022-10-04T01:26:59;101180.63;;;8.60;83.06
74895;BME280;63447;49.446;8.666;2022-10-04T01:29:30;101181.16;;;8.62;83.55
74895;BME280;63447;49.446;8.666;2022-10-04T01:31:59;101168.38;;;8.52;83.51
74895;BME280;63447;49.446;8.666;2022-10-04T01:34:29;101168.09;;;8.54;83.16
74895;BME280;63447;49.446;8.666;2022-10-04T01:36:58;101180.84;;;8.63;83.72
74895;BME280;63447;49.446;8.666;2022-10-04T01:39:31;101172.06;;;8.61;83.15
74895;BME280;63447;49.446;8.666;2022-10-04T01:42:08;101160.13;;;8.52;82.94
74895;BME280;63447;49.446;8.666;2022-10-04T01:44:46;101167.50;;;8.57;82.95
74895;BME280;63447;49.446;8.666;2022-10-04T01:50:02;101143.25;;;8.40;83.55
74895;BME280;63447;49.446;8.666;2022-10-04T01:52:49;101162.38;;;8.50;82.30
74895;BME280;63447;49.446;8.666;2022-10-04T01:55:24;101150.69;;;8.39;83.42
74895;BME280;63447;49.446;8.666;2022-10-04T01:58:01;101134.63;;;8.28;83.63
74895;BME280;63447;49.446;8.666;2022-10-04T02:00:31;101127.50;;;8.27;82.80
74895;BME280;63447;49.446;8.666;2022-10-04T02:03:02;101146.47;;;8.47;82.90
74895;BME280;63447;49.446;8.666;2022-10-04T02:05:34;101126.63;;;8.31;82.92
74895;BME280;63447;49.446;8.666;2022-10-04T02:08:08;101102.81;;;8.22;82.77
74895;BME280;63447;49.446;8.666;2022-10-04T02:10:37;101131.53;;;8.34;82.35
74895;BME280;63447;49.446;8.666;2022-10-04T02:13:12;101108.56;;;8.25;82.32
74895;BME280;63447;49.446;8.666;2022-10-04T02:15:42;101124.22;;;8.25;83.41
74895;BME280;63447;49.446;8.666;2022-10-04T02:18:11;101130.25;;;8.27;82.40
74895;BME280;63447;49.446;8.666;2022-10-04T02:20:38;101118.88;;;8.14;82.74
74895;BME280;63447;49.446;8.666;2022-10-04T02:23:05;101132.69;;;8.28;81.99
74895;BME280;63447;49.446;8.666;2022-10-04T02:25:30;101132.78;;;8.23;82.34
74895;BME280;63447;49.446;8.666;2022-10-04T02:27:58;101121.41;;;8.11;82.46
74895;BME280;63447;49.446;8.666;2022-10-04T02:30:23;101111.09;;;8.03;82.65
74895;BME280;63447;49.446;8.666;2022-10-04T02:32:53;101103.38;;;8.05;83.18
74895;BME280;63447;49.446;8.666;2022-10-04T02:35:33;101097.03;;;7.86;83.79
74895;BME280;63447;49.446;8.666;2022-10-04T02:40:44;101102.75;;;7.70;84.58
74895;BME280;63447;49.446;8.666;2022-10-04T02:43:21;101095.25;;;7.76;83.95
74895;BME280;63447;49.446;8.666;2022-10-04T02:48:39;101104.09;;;7.92;84.04
74895;BME280;63447;49.446;8.666;2022-10-04T02:56:28;101106.78;;;7.97;83.45
74895;BME280;63447;49.446;8.666;2022-10-04T02:58:59;101086.25;;;7.89;83.32
74895;BME280;63447;49.446;8.666;2022-10-04T03:01:27;101094.66;;;7.98;83.34
74895;BME280;63447;49.446;8.666;2022-10-04T03:04:00;101087.53;;;7.97;83.85
74895;BME280;63447;49.446;8.666;2022-10-04T03:06:31;101101.28;;;7.97;83.40
74895;BME280;63447;49.446;8.666;2022-10-04T03:09:02;101099.06;;;7.99;83.55
74895;BME280;63447;49.446;8.666;2022-10-04T03:11:36;101102.09;;;7.97;84.13
74895;BME280;63447;49.446;8.666;2022-10-04T03:14:03;101101.72;;;8.04;83.72
74895;BME280;63447;49.446;8.666;2022-10-04T03:16:36;101094.59;;;8.03;82.73
74895;BME280;63447;49.446;8.666;2022-10-04T03:19:02;101094.38;;;7.99;82.67
74895;BME280;63447;49.446;8.666;2022-10-04T03:21:33;101083.22;;;7.91;82.95
74895;BME280;63447;49.446;8.666;2022-10-04T03:24:00;101095.78;;;7.97;82.05
74895;BME280;63447;49.446;8.666;2022-10-04T03:26:31;101092.34;;;7.86;83.41
74895;BME280;63447;49.446;8.666;2022-10-04T03:28:59;101078.38;;;7.82;83.25
74895;BME280;63447;49.446;8.666;2022-10-04T03:31:32;101067.19;;;7.79;82.88
74895;BME280;63447;49.446;8.666;2022-10-04T03:33:58;101076.91;;;7.71;82.67
74895;BME280;63447;49.446;8.666;2022-10-04T03:36:25;101074.28;;;7.61;83.15
74895;BME280;63447;49.446;8.666;2022-10-04T03:38:53;101058.56;;;7.67;83.85
74895;BME280;63447;49.446;8.666;2022-10-04T03:41:22;101079.94;;;7.70;83.31
74895;BME280;63447;49.446;8.666;2022-10-04T03:43:54;101044.97;;;7.57;82.91
74895;BME280;63447;49.446;8.666;2022-10-04T03:46:21;101075.22;;;7.75;83.77
74895;BME280;63447;49.446;8.666;2022-10-04T03:48:50;101079.88;;;7.75;83.49
74895;BME280;63447;49.446;8.666;2022-10-04T03:51:19;101087.06;;;7.71;83.41
74895;BME280;63447;49.446;8.666;2022-10-04T03:53:56;101090.13;;;7.69;83.92
74895;BME280;63447;49.446;8.666;2022-10-04T03:56:34;101099.69;;;7.72;83.89
74895;BME280;63447;49.446;8.666;2022-10-04T03:59:02;101095.72;;;7.59;84.01
74895;BME280;63447;49.446;8.666;2022-10-04T04:09:18;101111.03;;;7.65;83.40
74895;BME280;63447;49.446;8.666;2022-10-04T04:11:48;101101.97;;;7.65;83.86
74895;BME280;63447;49.446;8.666;2022-10-04T04:14:21;101092.41;;;7.62;84.07
74895;BME280;63447;49.446;8.666;2022-10-04T04:16:48;101091.81;;;7.65;84.97
74895;BME280;63447;49.446;8.666;2022-10-04T04:19:17;101084.22;;;7.57;85.38
74895;BME280;63447;49.446;8.666;2022-10-04T04:21:48;101091.06;;;7.60;85.79
74895;BME280;63447;49.446;8.666;2022-10-04T04:24:23;101087.72;;;7.63;84.53
74895;BME280;63447;49.446;8.666;2022-10-04T04:26:55;101099.41;;;7.73;84.08
74895;BME280;63447;49.446;8.666;2022-10-04T04:31:59;101104.84;;;7.78;84.31
74895;BME280;63447;49.446;8.666;2022-10-04T04:34:31;101105.84;;;7.82;83.90
74895;BME280;63447;49.446;8.666;2022-10-04T04:37:02;101113.81;;;7.84;83.86
74895;BME280;63447;49.446;8.666;2022-10-04T04:39:29;101108.69;;;7.96;85.01
74895;BME280;63447;49.446;8.666;2022-10-04T04:44:56;101124.91;;;7.98;83.52
74895;BME280;63447;49.446;8.666;2022-10-04T04:50:01;101108.41;;;7.98;84.10
74895;BME280;63447;49.446;8.666;2022-10-04T04:52:28;101093.69;;;7.89;83.65
74895;BME280;63447;49.446;8.666;2022-10-04T04:54:56;101103.50;;;7.95;84.06
74895;BME280;63447;49.446;8.666;2022-10-04T04:57:21;101105.72;;;7.93;84.23
74895;BME280;63447;49.446;8.666;2022-10-04T04:59:51;101105.44;;;7.94;83.91
74895;BME280;63447;49.446;8.666;2022-10-04T05:02:31;101105.13;;;7.96;84.56
74895;BME280;63447;49.446;8.666;2022-10-04T05:05:20;101103.50;;;7.95;84.12
74895;BME280;63447;49.446;8.666;2022-10-04T05:07:47;101090.34;;;7.92;84.01
74895;BME280;63447;49.446;8.666;2022-10-04T05:10:34;101103.78;;;7.93;84.16
74895;BME280;63447;49.446;8.666;2022-10-04T05:13:00;101090.00;;;7.79;83.59
74895;BME280;63447;49.446;8.666;2022-10-04T05:15:34;101089.47;;;7.77;83.35
74895;BME280;63447;49.446;8.666;2022-10-04T05:18:26;101101.84;;;7.75;83.81
74895;BME280;63447;49.446;8.666;2022-10-04T05:20:53;101089.22;;;7.74;84.49
74895;BME280;63447;49.446;8.666;2022-10-04T05:23:21;101094.97;;;7.77;84.37
74895;BME280;63447;49.446;8.666;2022-10-04T05:25:49;101083.81;;;7.69;84.29
74895;BME280;63447;49.446;8.666;2022-10-04T05:28:18;101099.53;;;7.82;84.58
74895;BME280;63447;49.446;8.666;2022-10-04T05:31:10;101103.34;;;7.86;84.82
74895;BME280;63447;49.446;8.666;2022-10-04T05:33:56;101094.72;;;7.93;84.40
74895;BME280;63447;49.446;8.666;2022-10-04T05:42:04;101103.50;;;7.95;83.67
74895;BME280;63447;49.446;8.666;2022-10-04T05:44:35;101080.84;;;7.84;83.43
74895;BME280;63447;49.446;8.666;2022-10-04T05:47:06;101078.59;;;7.86;83.92
74895;BME280;63447;49.446;8.666;2022-10-04T05:49:38;101097.41;;;7.98;83.60
74895;BME280;63447;49.446;8.666;2022-10-04T05:52:24;101073.94;;;7.87;83.72
74895;BME280;63447;49.446;8.666;2022-10-04T06:03:29;101087.16;;;8.22;83.57
74895;BME280;63447;49.446;8.666;2022-10-04T06:06:21;101051.63;;;8.07;82.82
74895;BME280;63447;49.446;8.666;2022-10-04T06:09:09;101088.91;;;8.32;82.73
74895;BME280;63447;49.446;8.666;2022-10-04T06:17:32;101098.59;;;8.48;82.13
74895;BME280;63447;49.446;8.666;2022-10-04T06:20:24;101095.25;;;8.51;82.85
74895;BME280;63447;49.446;8.666;2022-10-04T06:23:11;101104.25;;;8.57;82.70
74895;BME280;63447;49.446;8.666;2022-10-04T06:25:49;101115.66;;;8.64;82.22
74895;BME280;63447;49.446;8.666;2022-10-04T06:28:18;101123.31;;;8.67;82.21
74895;BME280;63447;49.446;8.666;2022-10-04T06:33:41;101131.19;;;8.73;82.24
74895;BME280;63447;49.446;8.666;2022-10-04T06:44:25;101110.13;;;8.82;81.67
74895;BME280;63447;49.446;8.666;2022-10-04T06:47:13;101109.19;;;8.87;80.97
74895;BME280;63447;49.446;8.666;2022-10-04T06:50:11;101099.28;;;8.86;80.62
74895;BME280;63447;49.446;8.666;2022-10-04T06:52:50;101098.78;;;8.84;80.43
74895;BME280;63447;49.446;8.666;2022-10-04T06:55:29;101093.38;;;8.79;81.35
74895;BME280;63447;49.446;8.666;2022-10-04T06:58:04;101125.75;;;9.01;81.73
74895;BME280;63447;49.446;8.666;2022-10-04T07:00:51;101112.19;;;9.04;81.12
74895;BME280;63447;49.446;8.666;2022-10-04T07:03:28;101103.41;;;9.02;80.71
74895;BME280;63447;49.446;8.666;2022-10-04T07:06:02;101112.09;;;9.09;80.22
74895;BME280;63447;49.446;8.666;2022-10-04T07:08:49;101118.22;;;9.20;80.60
74895;BME280;63447;49.446;8.666;2022-10-04T07:11:31;101117.59;;;9.23;80.08
74895;BME280;63447;49.446;8.666;2022-10-04T07:25:00;101148.53;;;9.61;79.95
74895;BME280;63447;49.446;8.666;2022-10-04T07:27:52;101146.19;;;9.68;79.74
74895;BME280;63447;49.446;8.666;2022-10-04T07:30:40;101148.63;;;9.70;79.08
74895;BME280;63447;49.446;8.666;2022-10-04T07:33:15;101138.41;;;9.70;79.78
74895;BME280;63447;49.446;8.666;2022-10-04T07:35:49;101151.09;;;9.85;79.55
74895;BME280;63447;49.446;8.666;2022-10-04T07:38:46;101156.34;;;9.95;78.67
74895;BME280;63447;49.446;8.666;2022-10-04T07:43:54;101138.25;;;10.30;78.24
74895;BME280;63447;49.446;8.666;2022-10-04T07:49:03;101098.69;;;10.35;77.08
74895;BME280;63447;49.446;8.666;2022-10-04T07:57:05;101142.81;;;11.02;74.82
74895;BME280;63447;49.446;8.666;2022-10-04T08:05:02;101143.81;;;11.37;74.32
74895;BME280;63447;49.446;8.666;2022-10-04T08:10:13;101130.31;;;11.35;74.32
74895;BME280;63447;49.446;8.666;2022-10-04T08:15:21;101139.91;;;11.77;74.16
74895;BME280;63447;49.446;8.666;2022-10-04T08:26:51;101142.09;;;12.15;72.59
74895;BME280;63447;49.446;8.666;2022-10-04T08:29:32;101113.78;;;12.09;72.10
74895;BME280;63447;49.446;8.666;2022-10-04T08:32:42;101134.97;;;12.40;71.46
74895;BME280;63447;49.446;8.666;2022-10-04T08:35:32;101124.34;;;12.50;71.88
74895;BME280;63447;49.446;8.666;2022-10-04T08:45:56;101126.56;;;13.00;70.87
74895;BME280;63447;49.446;8.666;2022-10-04T08:48:29;101118.19;;;13.26;70.75
74895;BME280;63447;49.446;8.666;2022-10-04T09:16:26;101121.78;;;14.56;67.40
74895;BME280;63447;49.446;8.666;2022-10-04T09:19:19;101119.50;;;14.58;66.96
74895;BME280;63447;49.446;8.666;2022-10-04T09:35:49;101084.13;;;15.37;64.51
74895;BME280;63447;49.446;8.666;2022-10-04T09:41:23;101120.44;;;15.65;63.98
74895;BME280;63447;49.446;8.666;2022-10-04T09:46:55;101117.19;;;15.87;62.44
74895;BME280;63447;49.446;8.666;2022-10-04T09:57:43;101119.78;;;16.60;61.19
74895;BME280;63447;49.446;8.666;2022-10-04T10:00:19;101122.72;;;17.08;61.09
74895;BME280;63447;49.446;8.666;2022-10-04T10:05:56;101110.69;;;17.67;58.91
74895;BME280;63447;49.446;8.666;2022-10-04T10:08:41;101110.31;;;17.52;58.92
74895;BME280;63447;49.446;8.666;2022-10-04T10:17:23;101098.81;;;17.38;59.62
74895;BME280;63447;49.446;8.666;2022-10-04T10:25:39;101099.97;;;17.53;57.39
74895;BME280;63447;49.446;8.666;2022-10-04T10:56:16;101076.38;;;20.22;49.53
74895;BME280;63447;49.446;8.666;2022-10-04T11:04:54;101070.59;;;21.16;46.60
74895;BME280;63447;49.446;8.666;2022-10-04T11:27:45;101061.97;;;20.24;45.04
74895;BME280;63447;49.446;8.666;2022-10-04T11:41:14;101042.16;;;22.41;40.93
74895;BME280;63447;49.446;8.666;2022-10-04T11:43:59;101043.53;;;23.00;40.04
74895;BME280;63447;49.446;8.666;2022-10-04T11:57:44;101036.81;;;25.67;33.57
74895;BME280;63447;49.446;8.666;2022-10-04T12:00:26;101029.47;;;25.28;33.02
74895;BME280;63447;49.446;8.666;2022-10-04T12:14:58;101020.00;;;29.43;26.95
74895;BME280;63447;49.446;8.666;2022-10-04T12:20:29;101005.25;;;28.83;28.76
74895;BME280;63447;49.446;8.666;2022-10-04T12:31:27;100994.41;;;28.94;27.78
74895;BME280;63447;49.446;8.666;2022-10-04T12:34:10;100978.72;;;30.37;25.98
74895;BME280;63447;49.446;8.666;2022-10-04T12:42:24;100976.50;;;28.97;27.70
74895;BME280;63447;49.446;8.666;2022-10-04T12:48:11;100970.94;;;31.61;23.44
74895;BME280;63447;49.446;8.666;2022-10-04T12:53:35;100965.59;;;28.43;28.13
74895;BME280;63447;49.446;8.666;2022-10-04T12:59:25;100960.41;;;30.77;25.13
74895;BME280;63447;49.446;8.666;2022-10-04T13:04:54;100955.69;;;32.52;23.39
74895;BME280;63447;49.446;8.666;2022-10-04T13:07:58;100950.41;;;31.19;24.42
74895;BME280;63447;49.446;8.666;2022-10-04T13:21:52;100942.03;;;30.52;25.51
74895;BME280;63447;49.446;8.666;2022-10-04T13:27:01;100946.25;;;29.52;27.21
74895;BME280;63447;49.446;8.666;2022-10-04T13:32:17;100951.16;;;29.35;26.81
74895;BME280;63447;49.446;8.666;2022-10-04T13:39:57;100933.22;;;29.67;26.27
74895;BME280;63447;49.446;8.666;2022-10-04T13:57:04;100925.41;;;31.58;24.41
74895;BME280;63447;49.446;8.666;2022-10-04T13:59:44;100851.06;;;29.11;26.66
74895;BME280;63447;49.446;8.666;2022-10-04T14:24:51;100893.84;;;31.52;24.05
74895;BME280;63447;49.446;8.666;2022-10-04T14:54:49;100905.31;;;25.52;33.09
74895;BME280;63447;49.446;8.666;2022-10-04T14:57:40;100897.44;;;26.31;32.04
74895;BME280;63447;49.446;8.666;2022-10-04T15:00:21;100900.38;;;26.51;31.16
74895;BME280;63447;49.446;8.666;2022-10-04T15:11:01;100877.19;;;25.41;32.53
74895;BME280;63447;49.446;8.666;2022-10-04T15:13:54;100874.97;;;26.94;31.03
74895;BME280;63447;49.446;8.666;2022-10-04T15:19:23;100864.44;;;28.98;27.62
74895;BME280;63447;49.446;8.666;2022-10-04T15:22:18;100870.22;;;29.81;25.62
74895;BME280;63447;49.446;8.666;2022-10-04T15:24:50;100871.28;;;28.68;27.48
74895;BME280;63447;49.446;8.666;2022-10-04T15:41:00;100853.50;;;26.50;30.94
74895;BME280;63447;49.446;8.666;2022-10-04T15:52:38;100865.19;;;27.22;30.23
74895;BME280;63447;49.446;8.666;2022-10-04T15:55:20;100852.84;;;25.85;32.03
74895;BME280;63447;49.446;8.666;2022-10-04T16:22:07;100844.69;;;21.47;43.02
74895;BME280;63447;49.446;8.666;2022-10-04T16:24:44;100856.50;;;21.12;44.37
74895;BME280;63447;49.446;8.666;2022-10-04T16:29:52;100862.63;;;20.25;47.00
74895;BME280;63447;49.446;8.666;2022-10-04T16:32:23;100847.97;;;20.02;47.08
74895;BME280;63447;49.446;8.666;2022-10-04T16:47:38;100846.41;;;19.38;49.84
74895;BME280;63447;49.446;8.666;2022-10-04T16:50:10;100827.56;;;18.78;51.33
74895;BME280;63447;49.446;8.666;2022-10-04T16:55:57;100830.78;;;18.31;52.93
74895;BME280;63447;49.446;8.666;2022-10-04T17:06:30;100828.44;;;17.68;53.72
74895;BME280;63447;49.446;8.666;2022-10-04T17:20:20;100837.88;;;17.25;54.93
74895;BME280;63447;49.446;8.666;2022-10-04T17:28:33;100832.38;;;17.28;54.10
74895;BME280;63447;49.446;8.666;2022-10-04T17:36:40;100877.13;;;17.16;55.20
74895;BME280;63447;49.446;8.666;2022-10-04T17:42:11;100882.06;;;17.23;55.87
74895;BME280;63447;49.446;8.666;2022-10-04T17:50:11;100897.44;;;17.17;56.63
74895;BME280;63447;49.446;8.666;2022-10-04T17:53:04;100889.22;;;17.05;57.50
74895;BME280;63447;49.446;8.666;2022-10-04T17:55:56;100897.78;;;16.96;58.85
74895;BME280;63447;49.446;8.666;2022-10-04T17:58:55;100893.59;;;16.71;60.08
74895;BME280;63447;49.446;8.666;2022-10-04T18:06:53;100891.50;;;16.36;61.04
74895;BME280;63447;49.446;8.666;2022-10-04T18:09:31;100885.69;;;16.13;61.26
74895;BME280;63447;49.446;8.666;2022-10-04T18:12:00;100889.13;;;16.07;61.85
74895;BME280;63447;49.446;8.666;2022-10-04T18:17:21;100870.66;;;15.86;62.58
74895;BME280;63447;49.446;8.666;2022-10-04T18:22:47;100895.28;;;15.84;63.38
74895;BME280;63447;49.446;8.666;2022-10-04T18:25:18;100894.84;;;15.70;64.20
74895;BME280;63447;49.446;8.666;2022-10-04T18:27:50;100903.69;;;15.60;64.88
74895;BME280;63447;49.446;8.666;2022-10-04T18:30:19;100908.22;;;15.52;64.70
74895;BME280;63447;49.446;8.666;2022-10-04T18:32:54;100915.53;;;15.45;65.29
74895;BME280;63447;49.446;8.666;2022-10-04T18:35:29;100890.56;;;15.33;65.52
74895;BME280;63447;49.446;8.666;2022-10-04T18:37:55;100914.97;;;15.39;65.15
74895;BME280;63447;49.446;8.666;2022-10-04T18:40:29;100900.88;;;15.32;65.34
74895;BME280;63447;49.446;8.666;2022-10-04T18:42:58;100900.41;;;15.30;65.53
74895;BME280;63447;49.446;8.666;2022-10-04T18:45:29;100894.63;;;15.23;65.82
74895;BME280;63447;49.446;8.666;2022-10-04T18:47:57;100902.03;;;15.31;65.47
74895;BME280;63447;49.446;8.666;2022-10-04T18:50:36;100907.00;;;15.25;65.70
74895;BME280;63447;49.446;8.666;2022-10-04T18:53:43;100912.34;;;15.31;65.83
74895;BME280;63447;49.446;8.666;2022-10-04T18:56:10;100893.34;;;15.08;66.04
74895;BME280;63447;49.446;8.666;2022-10-04T19:05:06;100920.38;;;14.96;67.34
74895;BME280;63447;49.446;8.666;2022-10-04T19:07:50;100926.25;;;14.82;67.66
74895;BME280;63447;49.446;8.666;2022-10-04T19:13:02;100911.09;;;14.55;68.59
74895;BME280;63447;49.446;8.666;2022-10-04T19:30:03;100928.47;;;14.19;70.66
74895;BME280;63447;49.446;8.666;2022-10-04T19:35:57;100943.50;;;14.18;70.45
74895;BME280;63447;49.446;8.666;2022-10-04T19:41:30;100933.59;;;13.96;70.90
74895;BME280;63447;49.446;8.666;2022-10-04T19:44:12;100952.06;;;13.92;71.63
74895;BME280;63447;49.446;8.666;2022-10-04T19:49:44;100924.91;;;13.65;71.78
74895;BME280;63447;49.446;8.666;2022-10-04T19:52:29;100953.84;;;13.76;72.31
74895;BME280;63447;49.446;8.666;2022-10-04T19:55:04;100942.75;;;13.55;72.33
74895;BME280;63447;49.446;8.666;2022-10-04T19:57:36;100893.97;;;13.12;72.79
74895;BME280;63447;49.446;8.666;2022-10-04T20:00:12;100949.53;;;13.45;72.96
74895;BME280;63447;49.446;8.666;2022-10-04T20:02:41;100962.81;;;13.52;73.02
74895;BME280;63447;49.446;8.666;2022-10-04T20:05:14;100972.03;;;13.44;73.24
74895;BME280;63447;49.446;8.666;2022-10-04T20:07:47;100970.75;;;13.41;72.69
74895;BME280;63447;49.446;8.666;2022-10-04T20:18:00;100954.75;;;13.17;73.81
74895;BME280;63447;49.446;8.666;2022-10-04T20:23:09;100969.84;;;13.29;73.74
74895;BME280;63447;49.446;8.666;2022-10-04T20:28:07;100936.09;;;12.97;73.93
74895;BME280;63447;49.446;8.666;2022-10-04T20:31:02;100974.31;;;13.12;74.06
74895;BME280;63447;49.446;8.666;2022-10-04T20:47:35;100966.63;;;12.80;75.86
74895;BME280;63447;49.446;8.666;2022-10-04T20:50:19;100963.28;;;12.66;75.85
74895;BME280;63447;49.446;8.666;2022-10-04T20:52:53;100985.38;;;12.74;75.57
74895;BME280;63447;49.446;8.666;2022-10-04T20:55:28;100988.38;;;12.69;76.61
74895;BME280;63447;49.446;8.666;2022-10-04T20:58:37;100969.81;;;12.61;76.94
74895;BME280;63447;49.446;8.666;2022-10-04T21:00:53;100986.88;;;12.72;76.72
74895;BME280;63447;49.446;8.666;2022-10-04T21:03:20;100993.59;;;12.62;77.10
74895;BME280;63447;49.446;8.666;2022-10-04T21:05:59;100991.38;;;12.47;76.86
74895;BME280;63447;49.446;8.666;2022-10-04T21:08:28;101000.59;;;12.60;76.43
74895;BME280;63447;49.446;8.666;2022-10-04T21:11:01;100972.31;;;12.45;76.35
74895;BME280;63447;49.446;8.666;2022-10-04T21:16:52;100977.16;;;12.48;77.09
74895;BME280;63447;49.446;8.666;2022-10-04T21:19:47;100993.13;;;12.51;77.32
74895;BME280;63447;49.446;8.666;2022-10-04T21:27:34;100972.66;;;12.35;77.43
74895;BME280;63447;49.446;8.666;2022-10-04T21:30:01;100982.25;;;12.38;77.57
74895;BME280;63447;49.446;8.666;2022-10-04T21:32:32;100980.47;;;12.33;77.93
74895;BME280;63447;49.446;8.666;2022-10-04T21:35:01;100962.59;;;12.22;78.18
74895;BME280;63447;49.446;8.666;2022-10-04T21:37:30;100975.09;;;12.37;77.52
74895;BME280;63447;49.446;8.666;2022-10-04T21:39:55;100963.38;;;12.31;77.32
74895;BME280;63447;49.446;8.666;2022-10-04T21:42:21;100968.75;;;12.36;76.59
74895;BME280;63447;49.446;8.666;2022-10-04T21:44:46;100977.06;;;12.36;77.01
74895;BME280;63447;49.446;8.666;2022-10-04T21:47:12;100961.09;;;12.33;76.71
74895;BME280;63447;49.446;8.666;2022-10-04T21:49:37;100955.09;;;12.31;76.62
74895;BME280;63447;49.446;8.666;2022-10-04T21:52:03;100957.53;;;12.33;77.32
74895;BME280;63447;49.446;8.666;2022-10-04T21:54:28;100968.25;;;12.34;77.52
74895;BME280;63447;49.446;8.666;2022-10-04T21:56:54;100963.69;;;12.47;77.31
74895;BME280;63447;49.446;8.666;2022-10-04T21:59:20;100966.00;;;12.28;78.78
74895;BME280;63447;49.446;8.666;2022-10-04T22:01:45;100919.00;;;12.02;78.73
74895;BME280;63447;49.446;8.666;2022-10-04T22:04:10;100934.81;;;12.01;79.00
74895;BME280;63447;49.446;8.666;2022-10-04T22:06:36;100944.44;;;11.95;79.96
74895;BME280;63447;49.446;8.666;2022-10-04T22:09:02;100955.28;;;12.09;79.40
74895;BME280;63447;49.446;8.666;2022-10-04T22:11:27;100949.47;;;11.93;80.02
74895;BME280;63447;49.446;8.666;2022-10-04T22:13:52;100962.97;;;11.77;80.20
74895;BME280;63447;49.446;8.666;2022-10-04T22:16:20;100962.16;;;11.77;80.50
74895;BME280;63447;49.446;8.666;2022-10-04T22:18:46;100947.34;;;11.81;79.79
74895;BME280;63447;49.446;8.666;2022-10-04T22:21:11;100943.78;;;11.89;79.33
74895;BME280;63447;49.446;8.666;2022-10-04T22:23:39;100955.81;;;11.94;78.91
74895;BME280;63447;49.446;8.666;2022-10-04T22:26:14;100953.06;;;11.94;78.42
74895;BME280;63447;49.446;8.666;2022-10-04T22:28:51;100946.22;;;11.91;79.07
74895;BME280;63447;49.446;8.666;2022-10-04T22:31:19;100952.03;;;11.98;79.12
74895;BME280;63447;49.446;8.666;2022-10-04T22:33:47;100942.44;;;11.96;78.99
74895;BME280;63447;49.446;8.666;2022-10-04T22:38:42;100932.19;;;11.96;78.52
74895;BME280;63447;49.446;8.666;2022-10-04T22:41:10;100928.16;;;11.76;79.53
74895;BME280;63447;49.446;8.666;2022-10-04T22:43:38;100946.72;;;11.84;79.12
74895;BME280;63447;49.446;8.666;2022-10-04T22:46:04;100937.06;;;11.73;80.64
74895;BME280;63447;49.446;8.666;2022-10-04T22:48:34;100933.38;;;11.86;79.72
74895;BME280;63447;49.446;8.666;2022-10-04T22:51:00;100942.47;;;11.78;79.91
74895;BME280;63447;49.446;8.666;2022-10-04T22:53:25;100935.13;;;11.74;79.49
74895;BME280;63447;49.446;8.666;2022-10-04T22:55:53;100929.94;;;11.81;79.59
74895;BME280;63447;49.446;8.666;2022-10-04T22:58:20;100930.13;;;11.84;79.06
74895;BME280;63447;49.446;8.666;2022-10-04T23:00:48;100908.81;;;11.68;78.71
74895;BME280;63447;49.446;8.666;2022-10-04T23:03:29;100926.22;;;11.85;78.91
74895;BME280;63447;49.446;8.666;2022-10-04T23:05:59;100915.63;;;11.79;79.38
74895;BME280;63447;49.446;8.666;2022-10-04T23:08:25;100910.06;;;11.70;79.62
74895;BME280;63447;49.446;8.666;2022-10-04T23:10:55;100918.88;;;11.89;79.25
74895;BME280;63447;49.446;8.666;2022-10-04T23:13:25;100916.13;;;11.89;78.78
74895;BME280;63447;49.446;8.666;2022-10-04T23:15:51;100919.72;;;11.81;78.78
74895;BME280;63447;49.446;8.666;2022-10-04T23:18:17;100918.72;;;11.77;79.98
74895;BME280;63447;49.446;8.666;2022-10-04T23:20:55;100907.19;;;11.67;79.83
74895;BME280;63447;49.446;8.666;2022-10-04T23:23:24;100896.59;;;11.60;79.64
74895;BME280;63447;49.446;8.666;2022-10-04T23:25:52;100900.66;;;11.63;80.48
74895;BME280;63447;49.446;8.666;2022-10-04T23:28:18;100885.38;;;11.56;81.04
74895;BME280;63447;49.446;8.666;2022-10-04T23:30:45;100893.34;;;11.67;79.81
74895;BME280;63447;49.446;8.666;2022-10-04T23:33:19;100903.75;;;11.78;80.11